Terminal Aerodrome Forecast
Issued by NWS Louisville, KY

Home | Current Version | Previous Version | Text Only | Print | Product List | Glossary On
Versions: 1 2 3 4 5 6 7 8 9 10 11 12 13 14 15
000
FTUS43 KLMK 162300
TAFLEX
TAF
KLEX 162329Z 1700/1724 17008KT P6SM VCSH SCT020 BKN035
     FM170400 19005KT 6SM BR BKN025
     FM170600 20004KT 4SM BR BKN015
     FM170900 21004KT 3SM BR BKN008
     FM171600 26004KT 6SM BR BKN015
     FM171800 01005KT P6SM SCT030 SCT250=

USA.gov is the U.S. government's official web portal to all federal, state and local government web resources and services.